sensor_id;sensor_type;location;lat;lon;timestamp;temperature;humidity
31443;SHT31;18065;55.876;9.830;2023-04-01T00:00:11;20.84;47.94
31443;SHT31;18065;55.876;9.830;2023-04-01T00:02:39;20.84;47.79
31443;SHT31;18065;55.876;9.830;2023-04-01T00:05:11;20.84;47.70
31443;SHT31;18065;55.876;9.830;2023-04-01T00:07:39;20.83;47.76
31443;SHT31;18065;55.876;9.830;2023-04-01T00:10:09;20.87;47.68
31443;SHT31;18065;55.876;9.830;2023-04-01T00:12:38;20.85;47.79
31443;SHT31;18065;55.876;9.830;2023-04-01T00:15:07;20.85;47.77
31443;SHT31;18065;55.876;9.830;2023-04-01T00:17:36;20.87;47.48
31443;SHT31;18065;55.876;9.830;2023-04-01T00:20:05;20.87;47.63
31443;SHT31;18065;55.876;9.830;2023-04-01T00:22:37;20.84;47.60
31443;SHT31;18065;55.876;9.830;2023-04-01T00:25:05;20.85;47.69
31443;SHT31;18065;55.876;9.830;2023-04-01T00:27:34;20.87;47.65
31443;SHT31;18065;55.876;9.830;2023-04-01T00:30:02;20.85;47.88
31443;SHT31;18065;55.876;9.830;2023-04-01T00:32:31;20.88;47.94
31443;SHT31;18065;55.876;9.830;2023-04-01T00:35:00;20.87;47.99
31443;SHT31;18065;55.876;9.830;2023-04-01T00:37:28;20.90;48.00
31443;SHT31;18065;55.876;9.830;2023-04-01T00:39:59;20.90;47.94
31443;SHT31;18065;55.876;9.830;2023-04-01T00:42:27;20.88;48.02
31443;SHT31;18065;55.876;9.830;2023-04-01T00:44:56;20.88;47.97
31443;SHT31;18065;55.876;9.830;2023-04-01T00:47:24;20.87;47.68
31443;SHT31;18065;55.876;9.830;2023-04-01T00:49:54;20.87;47.53
31443;SHT31;18065;55.876;9.830;2023-04-01T00:52:23;20.88;47.88
31443;SHT31;18065;55.876;9.830;2023-04-01T00:54:53;20.88;47.69
31443;SHT31;18065;55.876;9.830;2023-04-01T00:57:27;20.87;47.70
31443;SHT31;18065;55.876;9.830;2023-04-01T00:59:56;20.84;47.75
31443;SHT31;18065;55.876;9.830;2023-04-01T01:02:25;20.84;47.82
31443;SHT31;18065;55.876;9.830;2023-04-01T01:04:53;20.85;48.03
31443;SHT31;18065;55.876;9.830;2023-04-01T01:07:24;20.87;48.10
31443;SHT31;18065;55.876;9.830;2023-04-01T01:09:56;20.85;48.08
31443;SHT31;18065;55.876;9.830;2023-04-01T01:12:33;20.85;48.20
31443;SHT31;18065;55.876;9.830;2023-04-01T01:15:06;20.87;48.16
31443;SHT31;18065;55.876;9.830;2023-04-01T01:17:38;20.85;48.10
31443;SHT31;18065;55.876;9.830;2023-04-01T01:20:24;20.85;48.12
31443;SHT31;18065;55.876;9.830;2023-04-01T01:25:46;20.83;48.25
31443;SHT31;18065;55.876;9.830;2023-04-01T01:28:25;20.83;47.86
31443;SHT31;18065;55.876;9.830;2023-04-01T01:30:59;20.80;47.66
31443;SHT31;18065;55.876;9.830;2023-04-01T01:33:35;20.80;47.75
31443;SHT31;18065;55.876;9.830;2023-04-01T01:36:10;20.78;47.65
31443;SHT31;18065;55.876;9.830;2023-04-01T01:38:40;20.78;47.43
31443;SHT31;18065;55.876;9.830;2023-04-01T01:41:09;20.77;47.61
31443;SHT31;18065;55.876;9.830;2023-04-01T01:43:39;20.80;47.59
31443;SHT31;18065;55.876;9.830;2023-04-01T01:46:10;20.78;47.61
31443;SHT31;18065;55.876;9.830;2023-04-01T01:48:39;20.77;47.71
31443;SHT31;18065;55.876;9.830;2023-04-01T01:51:12;20.78;47.65
31443;SHT31;18065;55.876;9.830;2023-04-01T01:53:40;20.78;47.54
31443;SHT31;18065;55.876;9.830;2023-04-01T01:56:10;20.80;47.57
31443;SHT31;18065;55.876;9.830;2023-04-01T01:58:39;20.78;47.42
31443;SHT31;18065;55.876;9.830;2023-04-01T02:01:10;20.80;47.49
31443;SHT31;18065;55.876;9.830;2023-04-01T02:03:40;20.77;47.43
31443;SHT31;18065;55.876;9.830;2023-04-01T02:06:14;20.77;47.12
31443;SHT31;18065;55.876;9.830;2023-04-01T02:08:43;20.77;47.05
31443;SHT31;18065;55.876;9.830;2023-04-01T02:11:15;20.78;47.30
31443;SHT31;18065;55.876;9.830;2023-04-01T02:13:46;20.77;47.33
31443;SHT31;18065;55.876;9.830;2023-04-01T02:16:17;20.76;47.13
31443;SHT31;18065;55.876;9.830;2023-04-01T02:18:47;20.76;47.18
31443;SHT31;18065;55.876;9.830;2023-04-01T02:21:19;20.77;47.18
31443;SHT31;18065;55.876;9.830;2023-04-01T02:23:48;20.76;47.06
31443;SHT31;18065;55.876;9.830;2023-04-01T02:26:18;20.76;47.28
31443;SHT31;18065;55.876;9.830;2023-04-01T02:28:46;20.77;47.41
31443;SHT31;18065;55.876;9.830;2023-04-01T02:31:16;20.76;47.61
31443;SHT31;18065;55.876;9.830;2023-04-01T02:33:45;20.76;47.51
31443;SHT31;18065;55.876;9.830;2023-04-01T02:36:14;20.76;47.64
31443;SHT31;18065;55.876;9.830;2023-04-01T02:38:46;20.76;47.53
31443;SHT31;18065;55.876;9.830;2023-04-01T02:41:15;20.77;47.56
31443;SHT31;18065;55.876;9.830;2023-04-01T02:43:44;20.76;47.48
31443;SHT31;18065;55.876;9.830;2023-04-01T02:46:12;20.76;47.04
31443;SHT31;18065;55.876;9.830;2023-04-01T02:48:40;20.74;47.21
31443;SHT31;18065;55.876;9.830;2023-04-01T02:51:09;20.74;47.39
31443;SHT31;18065;55.876;9.830;2023-04-01T02:53:37;20.74;47.17
31443;SHT31;18065;55.876;9.830;2023-04-01T02:56:08;20.74;47.05
31443;SHT31;18065;55.876;9.830;2023-04-01T02:58:36;20.76;47.25
31443;SHT31;18065;55.876;9.830;2023-04-01T03:01:05;20.74;47.46
31443;SHT31;18065;55.876;9.830;2023-04-01T03:03:33;20.76;47.48
31443;SHT31;18065;55.876;9.830;2023-04-01T03:06:04;20.76;47.19
31443;SHT31;18065;55.876;9.830;2023-04-01T03:08:32;20.71;47.40
31443;SHT31;18065;55.876;9.830;2023-04-01T03:11:01;20.74;47.35
31443;SHT31;18065;55.876;9.830;2023-04-01T03:13:32;20.76;47.45
31443;SHT31;18065;55.876;9.830;2023-04-01T03:16:01;20.74;47.41
31443;SHT31;18065;55.876;9.830;2023-04-01T03:18:29;20.74;47.45
31443;SHT31;18065;55.876;9.830;2023-04-01T03:21:01;20.74;47.50
31443;SHT31;18065;55.876;9.830;2023-04-01T03:23:39;20.77;47.43
31443;SHT31;18065;55.876;9.830;2023-04-01T03:26:08;20.76;47.26
31443;SHT31;18065;55.876;9.830;2023-04-01T03:28:38;20.74;47.21
31443;SHT31;18065;55.876;9.830;2023-04-01T03:31:07;20.77;47.47
31443;SHT31;18065;55.876;9.830;2023-04-01T03:33:35;20.73;47.14
31443;SHT31;18065;55.876;9.830;2023-04-01T03:36:04;20.74;47.34
31443;SHT31;18065;55.876;9.830;2023-04-01T03:38:33;20.74;47.31
31443;SHT31;18065;55.876;9.830;2023-04-01T03:41:01;20.77;47.45
31443;SHT31;18065;55.876;9.830;2023-04-01T03:43:30;20.73;47.40
31443;SHT31;18065;55.876;9.830;2023-04-01T03:46:01;20.73;47.58
31443;SHT31;18065;55.876;9.830;2023-04-01T03:48:29;20.73;47.47
31443;SHT31;18065;55.876;9.830;2023-04-01T03:50:57;20.74;47.39
31443;SHT31;18065;55.876;9.830;2023-04-01T03:53:26;20.71;47.30
31443;SHT31;18065;55.876;9.830;2023-04-01T03:55:54;20.76;47.51
31443;SHT31;18065;55.876;9.830;2023-04-01T03:58:23;20.73;47.48
31443;SHT31;18065;55.876;9.830;2023-04-01T04:00:51;20.74;47.92
31443;SHT31;18065;55.876;9.830;2023-04-01T04:03:22;20.73;47.65
31443;SHT31;18065;55.876;9.830;2023-04-01T04:05:51;20.73;47.54
31443;SHT31;18065;55.876;9.830;2023-04-01T04:08:20;20.74;47.51
31443;SHT31;18065;55.876;9.830;2023-04-01T04:10:54;20.76;47.32
31443;SHT31;18065;55.876;9.830;2023-04-01T04:13:22;20.74;47.05
31443;SHT31;18065;55.876;9.830;2023-04-01T04:15:50;20.76;46.92
31443;SHT31;18065;55.876;9.830;2023-04-01T04:18:21;20.76;47.20
31443;SHT31;18065;55.876;9.830;2023-04-01T04:20:50;20.73;46.91
31443;SHT31;18065;55.876;9.830;2023-04-01T04:23:18;20.74;46.82
31443;SHT31;18065;55.876;9.830;2023-04-01T04:25:53;20.73;47.18
31443;SHT31;18065;55.876;9.830;2023-04-01T04:28:22;20.74;47.21
31443;SHT31;18065;55.876;9.830;2023-04-01T04:30:50;20.76;47.15
31443;SHT31;18065;55.876;9.830;2023-04-01T04:33:19;20.73;46.80
31443;SHT31;18065;55.876;9.830;2023-04-01T04:35:50;20.76;47.01
31443;SHT31;18065;55.876;9.830;2023-04-01T04:38:18;20.74;47.20
31443;SHT31;18065;55.876;9.830;2023-04-01T04:40:47;20.76;47.18
31443;SHT31;18065;55.876;9.830;2023-04-01T04:43:16;20.74;47.56
31443;SHT31;18065;55.876;9.830;2023-04-01T04:45:44;20.74;47.42
31443;SHT31;18065;55.876;9.830;2023-04-01T04:48:20;20.73;47.05
31443;SHT31;18065;55.876;9.830;2023-04-01T04:50:51;20.71;47.02
31443;SHT31;18065;55.876;9.830;2023-04-01T04:53:19;20.70;47.02
31443;SHT31;18065;55.876;9.830;2023-04-01T04:55:48;20.71;47.33
31443;SHT31;18065;55.876;9.830;2023-04-01T04:58:17;20.70;47.08
31443;SHT31;18065;55.876;9.830;2023-04-01T05:00:46;20.71;47.34
31443;SHT31;18065;55.876;9.830;2023-04-01T05:03:14;20.70;47.05
31443;SHT31;18065;55.876;9.830;2023-04-01T05:05:47;20.70;47.26
31443;SHT31;18065;55.876;9.830;2023-04-01T05:08:19;20.69;47.11
31443;SHT31;18065;55.876;9.830;2023-04-01T05:10:47;20.71;47.35
31443;SHT31;18065;55.876;9.830;2023-04-01T05:13:15;20.67;47.37
31443;SHT31;18065;55.876;9.830;2023-04-01T05:15:44;20.71;47.68
31443;SHT31;18065;55.876;9.830;2023-04-01T05:18:12;20.70;47.38
31443;SHT31;18065;55.876;9.830;2023-04-01T05:20:45;20.69;47.17
31443;SHT31;18065;55.876;9.830;2023-04-01T05:23:13;20.73;47.43
31443;SHT31;18065;55.876;9.830;2023-04-01T05:25:44;20.70;47.56
31443;SHT31;18065;55.876;9.830;2023-04-01T05:28:13;20.70;47.27
31443;SHT31;18065;55.876;9.830;2023-04-01T05:30:41;20.67;47.20
31443;SHT31;18065;55.876;9.830;2023-04-01T05:33:10;20.67;47.22
31443;SHT31;18065;55.876;9.830;2023-04-01T05:35:39;20.66;47.15
31443;SHT31;18065;55.876;9.830;2023-04-01T05:38:07;20.67;47.41
31443;SHT31;18065;55.876;9.830;2023-04-01T05:40:36;20.67;47.40
31443;SHT31;18065;55.876;9.830;2023-04-01T05:43:07;20.66;47.29
31443;SHT31;18065;55.876;9.830;2023-04-01T05:45:35;20.64;47.17
31443;SHT31;18065;55.876;9.830;2023-04-01T05:48:04;20.64;46.78
31443;SHT31;18065;55.876;9.830;2023-04-01T05:50:32;20.63;46.79
31443;SHT31;18065;55.876;9.830;2023-04-01T05:53:00;20.63;47.23
31443;SHT31;18065;55.876;9.830;2023-04-01T05:55:29;20.61;47.02
31443;SHT31;18065;55.876;9.830;2023-04-01T05:57:57;20.63;46.99
31443;SHT31;18065;55.876;9.830;2023-04-01T06:00:28;20.60;47.13
31443;SHT31;18065;55.876;9.830;2023-04-01T06:02:58;20.61;47.07
31443;SHT31;18065;55.876;9.830;2023-04-01T06:05:30;20.60;47.13
31443;SHT31;18065;55.876;9.830;2023-04-01T06:08:05;20.57;47.27
31443;SHT31;18065;55.876;9.830;2023-04-01T06:10:39;20.54;46.89
31443;SHT31;18065;55.876;9.830;2023-04-01T06:13:10;20.54;47.18
31443;SHT31;18065;55.876;9.830;2023-04-01T06:15:47;20.53;46.96
31443;SHT31;18065;55.876;9.830;2023-04-01T06:18:24;20.57;47.31
31443;SHT31;18065;55.876;9.830;2023-04-01T06:20:58;20.59;47.30
31443;SHT31;18065;55.876;9.830;2023-04-01T06:23:33;20.57;47.21
31443;SHT31;18065;55.876;9.830;2023-04-01T06:26:12;20.59;47.11
31443;SHT31;18065;55.876;9.830;2023-04-01T06:28:57;20.57;47.13
31443;SHT31;18065;55.876;9.830;2023-04-01T06:31:38;20.57;47.43
31443;SHT31;18065;55.876;9.830;2023-04-01T06:37:03;20.59;47.63
31443;SHT31;18065;55.876;9.830;2023-04-01T06:39:42;20.57;47.48
31443;SHT31;18065;55.876;9.830;2023-04-01T06:42:15;20.53;47.01
31443;SHT31;18065;55.876;9.830;2023-04-01T06:44:50;20.50;46.71
31443;SHT31;18065;55.876;9.830;2023-04-01T06:47:26;20.50;47.03
31443;SHT31;18065;55.876;9.830;2023-04-01T06:50:00;20.51;46.90
31443;SHT31;18065;55.876;9.830;2023-04-01T06:52:31;20.51;46.74
31443;SHT31;18065;55.876;9.830;2023-04-01T06:55:12;20.50;47.00
31443;SHT31;18065;55.876;9.830;2023-04-01T06:57:43;20.49;46.89
31443;SHT31;18065;55.876;9.830;2023-04-01T07:02:45;20.54;47.20
31443;SHT31;18065;55.876;9.830;2023-04-01T07:05:18;20.50;46.96
31443;SHT31;18065;55.876;9.830;2023-04-01T07:07:48;20.51;46.89
31443;SHT31;18065;55.876;9.830;2023-04-01T07:10:19;20.51;47.09
31443;SHT31;18065;55.876;9.830;2023-04-01T07:12:49;20.49;46.76
31443;SHT31;18065;55.876;9.830;2023-04-01T07:15:18;20.47;46.91
31443;SHT31;18065;55.876;9.830;2023-04-01T07:17:53;20.46;47.11
31443;SHT31;18065;55.876;9.830;2023-04-01T07:20:24;20.50;47.01
31443;SHT31;18065;55.876;9.830;2023-04-01T07:22:54;20.47;47.11
31443;SHT31;18065;55.876;9.830;2023-04-01T07:25:24;20.51;47.30
31443;SHT31;18065;55.876;9.830;2023-04-01T07:27:53;20.49;47.06
31443;SHT31;18065;55.876;9.830;2023-04-01T07:30:23;20.49;47.39
31443;SHT31;18065;55.876;9.830;2023-04-01T07:32:56;20.51;47.43
31443;SHT31;18065;55.876;9.830;2023-04-01T07:35:27;20.46;47.62
31443;SHT31;18065;55.876;9.830;2023-04-01T07:38:03;20.50;47.79
31443;SHT31;18065;55.876;9.830;2023-04-01T07:40:36;20.50;47.39
31443;SHT31;18065;55.876;9.830;2023-04-01T07:43:10;20.47;47.09
31443;SHT31;18065;55.876;9.830;2023-04-01T07:45:43;20.49;47.40
31443;SHT31;18065;55.876;9.830;2023-04-01T07:48:22;20.50;47.20
31443;SHT31;18065;55.876;9.830;2023-04-01T07:50:54;20.44;47.04
31443;SHT31;18065;55.876;9.830;2023-04-01T07:53:27;20.40;46.84
31443;SHT31;18065;55.876;9.830;2023-04-01T07:56:00;20.39;46.69
31443;SHT31;18065;55.876;9.830;2023-04-01T07:58:31;20.40;47.15
31443;SHT31;18065;55.876;9.830;2023-04-01T08:01:05;20.43;47.07
31443;SHT31;18065;55.876;9.830;2023-04-01T08:03:43;20.41;47.12
31443;SHT31;18065;55.876;9.830;2023-04-01T08:06:18;20.41;47.18
31443;SHT31;18065;55.876;9.830;2023-04-01T08:08:51;20.46;47.62
31443;SHT31;18065;55.876;9.830;2023-04-01T08:11:27;20.41;47.25
31443;SHT31;18065;55.876;9.830;2023-04-01T08:14:00;20.44;47.11
31443;SHT31;18065;55.876;9.830;2023-04-01T08:16:33;20.39;47.17
31443;SHT31;18065;55.876;9.830;2023-04-01T08:19:06;20.39;46.98
31443;SHT31;18065;55.876;9.830;2023-04-01T08:21:38;20.39;47.07
31443;SHT31;18065;55.876;9.830;2023-04-01T08:24:11;20.39;46.81
31443;SHT31;18065;55.876;9.830;2023-04-01T08:26:42;20.37;47.07
31443;SHT31;18065;55.876;9.830;2023-04-01T08:29:13;20.39;47.43
31443;SHT31;18065;55.876;9.830;2023-04-01T08:31:48;20.41;47.41
31443;SHT31;18065;55.876;9.830;2023-04-01T08:34:20;20.44;47.61
31443;SHT31;18065;55.876;9.830;2023-04-01T08:36:51;20.40;47.51
31443;SHT31;18065;55.876;9.830;2023-04-01T08:39:22;20.40;47.35
31443;SHT31;18065;55.876;9.830;2023-04-01T08:44:49;20.39;46.79
31443;SHT31;18065;55.876;9.830;2023-04-01T08:53:09;20.41;47.41
31443;SHT31;18065;55.876;9.830;2023-04-01T08:55:43;20.40;47.45
31443;SHT31;18065;55.876;9.830;2023-04-01T09:01:04;20.39;47.03
31443;SHT31;18065;55.876;9.830;2023-04-01T09:03:42;20.36;46.93
31443;SHT31;18065;55.876;9.830;2023-04-01T09:09:09;20.34;46.87
31443;SHT31;18065;55.876;9.830;2023-04-01T09:11:44;20.30;46.76
31443;SHT31;18065;55.876;9.830;2023-04-01T09:14:26;20.33;47.30
31443;SHT31;18065;55.876;9.830;2023-04-01T09:19:46;20.30;47.07
31443;SHT31;18065;55.876;9.830;2023-04-01T09:22:22;20.30;47.12
31443;SHT31;18065;55.876;9.830;2023-04-01T09:27:40;20.37;48.72
31443;SHT31;18065;55.876;9.830;2023-04-01T09:33:16;20.39;48.46
31443;SHT31;18065;55.876;9.830;2023-04-01T09:35:49;20.43;48.56
31443;SHT31;18065;55.876;9.830;2023-04-01T09:38:22;20.44;48.41
31443;SHT31;18065;55.876;9.830;2023-04-01T09:40:54;20.40;47.97
31443;SHT31;18065;55.876;9.830;2023-04-01T09:43:27;20.41;47.99
31443;SHT31;18065;55.876;9.830;2023-04-01T09:51:31;20.36;47.71
31443;SHT31;18065;55.876;9.830;2023-04-01T09:54:16;20.36;47.24
31443;SHT31;18065;55.876;9.830;2023-04-01T09:57:01;20.36;47.56
31443;SHT31;18065;55.876;9.830;2023-04-01T10:10:33;20.34;47.32
31443;SHT31;18065;55.876;9.830;2023-04-01T10:13:18;20.33;47.32
31443;SHT31;18065;55.876;9.830;2023-04-01T10:21:25;20.30;46.93
31443;SHT31;18065;55.876;9.830;2023-04-01T10:24:15;20.29;46.93
31443;SHT31;18065;55.876;9.830;2023-04-01T10:29:46;20.28;46.95
31443;SHT31;18065;55.876;9.830;2023-04-01T10:32:23;20.30;47.35
31443;SHT31;18065;55.876;9.830;2023-04-01T10:37:59;20.29;47.47
31443;SHT31;18065;55.876;9.830;2023-04-01T10:40:37;20.29;47.24
31443;SHT31;18065;55.876;9.830;2023-04-01T10:46:18;20.26;46.92
31443;SHT31;18065;55.876;9.830;2023-04-01T10:54:40;20.28;47.61
31443;SHT31;18065;55.876;9.830;2023-04-01T10:57:15;20.28;47.37
31443;SHT31;18065;55.876;9.830;2023-04-01T11:14:09;20.28;47.13
31443;SHT31;18065;55.876;9.830;2023-04-01T11:16:55;20.28;47.40
31443;SHT31;18065;55.876;9.830;2023-04-01T11:22:29;20.32;48.44
31443;SHT31;18065;55.876;9.830;2023-04-01T11:28:00;20.26;47.43
31443;SHT31;18065;55.876;9.830;2023-04-01T11:30:44;20.26;47.62
31443;SHT31;18065;55.876;9.830;2023-04-01T11:33:18;20.26;47.44
31443;SHT31;18065;55.876;9.830;2023-04-01T11:35:50;20.30;47.75
31443;SHT31;18065;55.876;9.830;2023-04-01T11:41:08;20.30;47.48
31443;SHT31;18065;55.876;9.830;2023-04-01T11:43:43;20.32;47.46
31443;SHT31;18065;55.876;9.830;2023-04-01T11:46:19;20.33;47.05
31443;SHT31;18065;55.876;9.830;2023-04-01T11:48:54;20.30;47.33
31443;SHT31;18065;55.876;9.830;2023-04-01T11:51:34;20.32;47.31
31443;SHT31;18065;55.876;9.830;2023-04-01T11:54:07;20.29;47.77
31443;SHT31;18065;55.876;9.830;2023-04-01T11:56:45;20.32;47.30
31443;SHT31;18065;55.876;9.830;2023-04-01T11:59:24;20.28;47.05
31443;SHT31;18065;55.876;9.830;2023-04-01T12:01:59;20.32;47.11
31443;SHT31;18065;55.876;9.830;2023-04-01T12:07:19;20.33;47.59
31443;SHT31;18065;55.876;9.830;2023-04-01T12:09:52;20.26;47.53
31443;SHT31;18065;55.876;9.830;2023-04-01T12:12:25;20.30;47.17
31443;SHT31;18065;55.876;9.830;2023-04-01T12:14:56;20.29;46.84
31443;SHT31;18065;55.876;9.830;2023-04-01T12:17:33;20.26;47.03
31443;SHT31;18065;55.876;9.830;2023-04-01T12:20:12;20.25;47.28
31443;SHT31;18065;55.876;9.830;2023-04-01T12:22:49;20.26;47.31
31443;SHT31;18065;55.876;9.830;2023-04-01T12:25:24;20.28;47.10
31443;SHT31;18065;55.876;9.830;2023-04-01T12:28:03;20.25;47.07
31443;SHT31;18065;55.876;9.830;2023-04-01T12:30:37;20.28;47.29
31443;SHT31;18065;55.876;9.830;2023-04-01T12:35:58;20.26;47.21
31443;SHT31;18065;55.876;9.830;2023-04-01T12:38:30;20.29;48.00
31443;SHT31;18065;55.876;9.830;2023-04-01T12:41:03;20.28;47.67
31443;SHT31;18065;55.876;9.830;2023-04-01T12:46:29;20.29;47.27
31443;SHT31;18065;55.876;9.830;2023-04-01T12:49:10;20.30;47.26
31443;SHT31;18065;55.876;9.830;2023-04-01T12:54:42;20.23;47.45
31443;SHT31;18065;55.876;9.830;2023-04-01T12:57:19;20.29;47.78
31443;SHT31;18065;55.876;9.830;2023-04-01T13:00:01;20.30;47.57
31443;SHT31;18065;55.876;9.830;2023-04-01T13:02:34;20.32;47.66
31443;SHT31;18065;55.876;9.830;2023-04-01T13:05:18;20.34;47.48
31443;SHT31;18065;55.876;9.830;2023-04-01T13:07:51;20.30;47.41
31443;SHT31;18065;55.876;9.830;2023-04-01T13:10:30;20.29;47.67
31443;SHT31;18065;55.876;9.830;2023-04-01T13:13:03;20.25;46.89
31443;SHT31;18065;55.876;9.830;2023-04-01T13:15:35;20.26;47.34
31443;SHT31;18065;55.876;9.830;2023-04-01T13:18:10;20.26;47.83
31443;SHT31;18065;55.876;9.830;2023-04-01T13:20:44;20.26;47.86
31443;SHT31;18065;55.876;9.830;2023-04-01T13:23:17;20.29;48.56
31443;SHT31;18065;55.876;9.830;2023-04-01T13:25:58;20.32;47.68
31443;SHT31;18065;55.876;9.830;2023-04-01T13:28:30;20.30;47.57
31443;SHT31;18065;55.876;9.830;2023-04-01T13:31:01;20.32;47.74
31443;SHT31;18065;55.876;9.830;2023-04-01T13:33:34;20.32;47.92
31443;SHT31;18065;55.876;9.830;2023-04-01T13:36:08;20.29;47.49
31443;SHT31;18065;55.876;9.830;2023-04-01T13:38:46;20.26;47.68
31443;SHT31;18065;55.876;9.830;2023-04-01T13:41:22;20.28;48.01
31443;SHT31;18065;55.876;9.830;2023-04-01T13:43:52;20.28;47.44
31443;SHT31;18065;55.876;9.830;2023-04-01T13:46:41;20.29;48.51
31443;SHT31;18065;55.876;9.830;2023-04-01T13:57:47;20.28;48.32
31443;SHT31;18065;55.876;9.830;2023-04-01T14:00:23;20.29;48.41
31443;SHT31;18065;55.876;9.830;2023-04-01T14:05:43;20.25;48.71
31443;SHT31;18065;55.876;9.830;2023-04-01T14:08:17;20.26;48.32
31443;SHT31;18065;55.876;9.830;2023-04-01T14:10:49;20.26;47.88
31443;SHT31;18065;55.876;9.830;2023-04-01T14:13:27;20.25;47.64
31443;SHT31;18065;55.876;9.830;2023-04-01T14:18:51;20.25;47.72
31443;SHT31;18065;55.876;9.830;2023-04-01T14:21:27;20.28;48.33
31443;SHT31;18065;55.876;9.830;2023-04-01T14:24:03;20.28;48.27
31443;SHT31;18065;55.876;9.830;2023-04-01T14:26:38;20.32;48.53
31443;SHT31;18065;55.876;9.830;2023-04-01T14:29:14;20.30;49.02
31443;SHT31;18065;55.876;9.830;2023-04-01T14:31:50;20.34;49.58
31443;SHT31;18065;55.876;9.830;2023-04-01T14:34:24;20.34;49.01
31443;SHT31;18065;55.876;9.830;2023-04-01T14:37:08;20.37;49.66
31443;SHT31;18065;55.876;9.830;2023-04-01T14:42:23;20.37;49.91
31443;SHT31;18065;55.876;9.830;2023-04-01T14:47:55;20.37;49.97
31443;SHT31;18065;55.876;9.830;2023-04-01T14:50:27;20.36;49.99
31443;SHT31;18065;55.876;9.830;2023-04-01T14:52:57;20.37;50.47
31443;SHT31;18065;55.876;9.830;2023-04-01T14:55:31;20.40;50.14
31443;SHT31;18065;55.876;9.830;2023-04-01T14:58:10;20.40;50.14
31443;SHT31;18065;55.876;9.830;2023-04-01T15:03:28;20.43;50.02
31443;SHT31;18065;55.876;9.830;2023-04-01T15:06:06;20.39;49.66
31443;SHT31;18065;55.876;9.830;2023-04-01T15:08:38;20.41;49.66
31443;SHT31;18065;55.876;9.830;2023-04-01T15:11:23;20.40;49.55
31443;SHT31;18065;55.876;9.830;2023-04-01T15:14:05;20.41;49.51
31443;SHT31;18065;55.876;9.830;2023-04-01T15:16:39;20.46;50.02
31443;SHT31;18065;55.876;9.830;2023-04-01T15:19:15;20.46;49.84
31443;SHT31;18065;55.876;9.830;2023-04-01T15:21:50;20.41;49.15
31443;SHT31;18065;55.876;9.830;2023-04-01T15:24:24;20.47;49.83
31443;SHT31;18065;55.876;9.830;2023-04-01T15:29:39;20.53;50.27
31443;SHT31;18065;55.876;9.830;2023-04-01T15:32:15;20.51;50.14
31443;SHT31;18065;55.876;9.830;2023-04-01T15:34:48;20.51;50.22
31443;SHT31;18065;55.876;9.830;2023-04-01T15:37:19;20.51;50.02
31443;SHT31;18065;55.876;9.830;2023-04-01T15:39:51;20.51;49.68
31443;SHT31;18065;55.876;9.830;2023-04-01T15:42:26;20.51;49.42
31443;SHT31;18065;55.876;9.830;2023-04-01T15:47:44;20.46;48.61
31443;SHT31;18065;55.876;9.830;2023-04-01T15:50:36;20.44;48.98
31443;SHT31;18065;55.876;9.830;2023-04-01T15:53:13;20.46;49.15
31443;SHT31;18065;55.876;9.830;2023-04-01T15:55:45;20.46;48.97
31443;SHT31;18065;55.876;9.830;2023-04-01T16:01:04;20.47;49.44
31443;SHT31;18065;55.876;9.830;2023-04-01T16:03:37;20.47;49.18
31443;SHT31;18065;55.876;9.830;2023-04-01T16:06:21;20.49;49.12
31443;SHT31;18065;55.876;9.830;2023-04-01T16:09:01;20.49;48.89
31443;SHT31;18065;55.876;9.830;2023-04-01T16:11:34;20.47;48.70
31443;SHT31;18065;55.876;9.830;2023-04-01T16:14:12;20.46;48.40
31443;SHT31;18065;55.876;9.830;2023-04-01T16:16:46;20.49;49.29
31443;SHT31;18065;55.876;9.830;2023-04-01T16:19:26;20.50;48.99
31443;SHT31;18065;55.876;9.830;2023-04-01T16:22:00;20.49;48.84
31443;SHT31;18065;55.876;9.830;2023-04-01T16:24:32;20.49;49.06
31443;SHT31;18065;55.876;9.830;2023-04-01T16:27:03;20.49;50.19
31443;SHT31;18065;55.876;9.830;2023-04-01T16:29:36;20.53;49.66
31443;SHT31;18065;55.876;9.830;2023-04-01T16:32:18;20.56;49.98
31443;SHT31;18065;55.876;9.830;2023-04-01T16:34:54;20.54;49.90
31443;SHT31;18065;55.876;9.830;2023-04-01T16:37:31;20.57;49.79
31443;SHT31;18065;55.876;9.830;2023-04-01T16:40:03;20.57;49.49
31443;SHT31;18065;55.876;9.830;2023-04-01T16:42:40;20.57;49.29
31443;SHT31;18065;55.876;9.830;2023-04-01T16:45:16;20.60;49.54
31443;SHT31;18065;55.876;9.830;2023-04-01T16:47:48;20.59;49.11
31443;SHT31;18065;55.876;9.830;2023-04-01T16:50:18;20.60;48.95
31443;SHT31;18065;55.876;9.830;2023-04-01T16:52:57;20.63;48.82
31443;SHT31;18065;55.876;9.830;2023-04-01T16:55:34;20.61;48.62
31443;SHT31;18065;55.876;9.830;2023-04-01T16:58:03;20.63;48.50
31443;SHT31;18065;55.876;9.830;2023-04-01T17:00:36;20.64;48.54
31443;SHT31;18065;55.876;9.830;2023-04-01T17:03:08;20.63;48.10
31443;SHT31;18065;55.876;9.830;2023-04-01T17:05:46;20.63;48.34
31443;SHT31;18065;55.876;9.830;2023-04-01T17:08:21;20.66;48.15
31443;SHT31;18065;55.876;9.830;2023-04-01T17:10:51;20.66;48.14
31443;SHT31;18065;55.876;9.830;2023-04-01T17:13:28;20.69;48.41
31443;SHT31;18065;55.876;9.830;2023-04-01T17:16:01;20.70;48.42
31443;SHT31;18065;55.876;9.830;2023-04-01T17:18:34;20.70;48.18
31443;SHT31;18065;55.876;9.830;2023-04-01T17:21:04;20.71;48.11
31443;SHT31;18065;55.876;9.830;2023-04-01T17:23:40;20.70;48.05
31443;SHT31;18065;55.876;9.830;2023-04-01T17:26:15;20.69;48.03
31443;SHT31;18065;55.876;9.830;2023-04-01T17:28:48;20.69;48.15
31443;SHT31;18065;55.876;9.830;2023-04-01T17:31:21;20.67;47.80
31443;SHT31;18065;55.876;9.830;2023-04-01T17:33:56;20.69;47.88
31443;SHT31;18065;55.876;9.830;2023-04-01T17:36:41;20.67;47.49
31443;SHT31;18065;55.876;9.830;2023-04-01T17:39:19;20.69;47.78
31443;SHT31;18065;55.876;9.830;2023-04-01T17:41:52;20.70;47.77
31443;SHT31;18065;55.876;9.830;2023-04-01T17:44:26;20.67;47.84
31443;SHT31;18065;55.876;9.830;2023-04-01T17:47:00;20.64;47.70
31443;SHT31;18065;55.876;9.830;2023-04-01T17:49:33;20.67;47.80
31443;SHT31;18065;55.876;9.830;2023-04-01T17:52:04;20.69;48.01
31443;SHT31;18065;55.876;9.830;2023-04-01T17:54:38;20.67;47.89
31443;SHT31;18065;55.876;9.830;2023-04-01T17:57:20;20.67;48.16
31443;SHT31;18065;55.876;9.830;2023-04-01T17:59:52;20.67;48.25
31443;SHT31;18065;55.876;9.830;2023-04-01T18:02:25;20.64;48.29
31443;SHT31;18065;55.876;9.830;2023-04-01T18:07:51;20.69;48.24
31443;SHT31;18065;55.876;9.830;2023-04-01T18:10:28;20.66;48.28
31443;SHT31;18065;55.876;9.830;2023-04-01T18:13:13;20.67;48.29
31443;SHT31;18065;55.876;9.830;2023-04-01T18:15:44;20.64;48.29
31443;SHT31;18065;55.876;9.830;2023-04-01T18:18:23;20.66;48.22
31443;SHT31;18065;55.876;9.830;2023-04-01T18:20:57;20.64;48.30